Time;durP1;ratioP1;P1;durP2;ratioP2;P2;SDS_P1;SDS_P2;PMS_P1;PMS_P2;Temp;Humidity;BMP_temperature;BMP_pressure;BME280_temperature;BME280_humidity;BME280_pressure;Samples;Min_cycle;Max_cycle;Signal;HPM_P1;HPM_P2
2024/01/17 00:04:56;;;;;;;9.10;4.22;;;;;;;;;;10447497;28;20044;-74
2024/01/17 00:09:59;;;;;;;10.27;4.70;;;;;;;;;;10446214;28;20049;-74
2024/01/17 00:15:04;;;;;;;10.77;4.47;;;;;;;;;;10452061;28;20137;-74
2024/01/17 00:20:09;;;;;;;7.55;3.85;;;;;;;;;;10452750;28;20622;-74
2024/01/17 00:25:12;;;;;;;7.78;4.28;;;;;;;;;;10435111;28;20041;-74
2024/01/17 00:30:18;;;;;;;14.55;5.60;;;;;;;;;;10451315;28;20044;-74
2024/01/17 00:35:21;;;;;;;9.57;5.03;;;;;;;;;;10441691;28;20088;-75
2024/01/17 00:40:27;;;;;;;10.38;5.65;;;;;;;;;;10441084;28;20091;-74
2024/01/17 00:45:32;;;;;;;15.63;7.05;;;;;;;;;;10441062;28;20533;-74
2024/01/17 00:50:35;;;;;;;19.17;6.80;;;;;;;;;;10437209;28;20045;-74
2024/01/17 00:55:38;;;;;;;14.57;7.15;;;;;;;;;;10456164;28;20056;-74
2024/01/17 01:00:43;;;;;;;17.10;7.85;;;;;;;;;;10454073;28;20049;-74
2024/01/17 01:05:48;;;;;;;14.18;7.35;;;;;;;;;;10465923;28;20135;-74
2024/01/17 01:10:51;;;;;;;13.68;7.57;;;;;;;;;;10463706;28;20043;-74
2024/01/17 01:15:55;;;;;;;12.68;6.68;;;;;;;;;;10431983;28;20057;-74
2024/01/17 01:20:59;;;;;;;11.70;5.57;;;;;;;;;;10443315;28;20510;-74
2024/01/17 01:26:02;;;;;;;11.50;5.68;;;;;;;;;;10442790;28;20049;-74
2024/01/17 01:31:07;;;;;;;14.68;6.82;;;;;;;;;;10442221;28;20502;-74
2024/01/17 01:36:10;;;;;;;14.67;7.10;;;;;;;;;;10444528;28;20057;-74
2024/01/17 01:41:13;;;;;;;13.98;6.75;;;;;;;;;;10441648;28;20132;-74
2024/01/17 01:46:24;;;;;;;12.10;6.40;;;;;;;;;;10438607;28;20446;-74
2024/01/17 01:51:29;;;;;;;12.23;6.95;;;;;;;;;;10445822;28;20053;-74
2024/01/17 02:29:49;;;;;;;12.18;5.60;;;;;;;;;;10435163;28;20143;-76
2024/01/17 04:31:16;;;;;;;11.98;5.28;;;;;;;;;;10100081;29;20126;-76
2024/01/17 04:38:05;;;;;;;;;;;;;;;;;;;;;
2024/01/17 04:51:22;;;;;;;7.78;4.13;;;;;;;;;;10439987;22;20293;-76
2024/01/17 04:57:35;;;;;;;6.50;4.38;;;;;;;;;;10411651;28;20058;-76
2024/01/17 05:03:29;;;;;;;9.68;4.70;;;;;;;;;;10454560;28;20398;-76
2024/01/17 05:08:39;;;;;;;10.52;4.97;;;;;;;;;;10487754;22;20475;-76
2024/01/17 05:13:43;;;;;;;7.75;4.70;;;;;;;;;;10446327;28;20828;-76
2024/01/17 05:18:47;;;;;;;7.13;4.00;;;;;;;;;;10428393;28;20410;-76
2024/01/17 05:23:51;;;;;;;6.57;4.18;;;;;;;;;;10444684;28;20068;-76
2024/01/17 05:28:54;;;;;;;9.07;5.25;;;;;;;;;;10447065;28;20174;-76
2024/01/17 05:33:59;;;;;;;8.93;5.25;;;;;;;;;;10444164;28;20136;-76
2024/01/17 05:39:03;;;;;;;11.32;5.35;;;;;;;;;;10446174;28;20051;-76
2024/01/17 05:44:06;;;;;;;8.13;5.00;;;;;;;;;;10425669;28;20071;-76
2024/01/17 05:49:11;;;;;;;9.32;5.30;;;;;;;;;;10446225;28;20394;-77
2024/01/17 05:54:14;;;;;;;10.35;3.97;;;;;;;;;;10446730;28;20055;-76
2024/01/17 05:59:17;;;;;;;9.32;4.65;;;;;;;;;;10447102;28;20053;-76
2024/01/17 06:04:22;;;;;;;9.32;4.70;;;;;;;;;;10440335;28;20247;-77
2024/01/17 06:09:25;;;;;;;6.68;3.88;;;;;;;;;;10435759;28;20139;-76
2024/01/17 06:14:28;;;;;;;5.90;3.72;;;;;;;;;;10442383;28;20049;-77
2024/01/17 06:19:33;;;;;;;6.80;3.97;;;;;;;;;;10440558;28;20567;-76
2024/01/17 06:24:37;;;;;;;6.20;3.80;;;;;;;;;;10437821;28;20478;-77
2024/01/17 06:29:42;;;;;;;5.28;3.67;;;;;;;;;;10442294;28;20103;-76
2024/01/17 06:34:46;;;;;;;7.70;4.00;;;;;;;;;;10441200;28;20693;-77
2024/01/17 06:39:50;;;;;;;8.38;4.78;;;;;;;;;;10444196;28;20827;-76
2024/01/17 06:44:53;;;;;;;15.18;5.15;;;;;;;;;;10446158;28;20892;-77
2024/01/17 06:49:58;;;;;;;9.98;5.40;;;;;;;;;;10440643;28;20135;-76
2024/01/17 06:55:01;;;;;;;10.57;5.55;;;;;;;;;;10438447;28;20045;-77
2024/01/17 07:00:06;;;;;;;11.57;5.53;;;;;;;;;;10441639;28;20129;-77
2024/01/17 07:05:11;;;;;;;9.27;4.43;;;;;;;;;;10439378;28;20783;-76
2024/01/17 07:10:14;;;;;;;12.00;4.78;;;;;;;;;;10445173;28;20049;-76
2024/01/17 07:15:18;;;;;;;10.30;5.13;;;;;;;;;;10445082;28;20044;-76
2024/01/17 07:20:23;;;;;;;8.35;4.35;;;;;;;;;;10439472;28;20045;-76
2024/01/17 07:25:26;;;;;;;10.25;5.25;;;;;;;;;;10448317;28;20597;-77
2024/01/17 07:30:29;;;;;;;9.30;5.05;;;;;;;;;;10448428;28;20049;-77
2024/01/17 07:35:34;;;;;;;9.90;4.55;;;;;;;;;;10438533;28;20059;-77
2024/01/17 07:40:37;;;;;;;7.97;4.38;;;;;;;;;;10443095;28;20124;-77
2024/01/17 07:45:41;;;;;;;9.15;4.72;;;;;;;;;;10426766;28;20055;-76
2024/01/17 07:50:46;;;;;;;10.88;6.30;;;;;;;;;;10442737;28;20051;-77
2024/01/17 07:55:49;;;;;;;9.98;5.68;;;;;;;;;;10419824;28;20079;-77
2024/01/17 08:00:53;;;;;;;8.73;5.13;;;;;;;;;;10438117;28;20514;-77
2024/01/17 08:05:58;;;;;;;24.83;8.93;;;;;;;;;;10441661;28;20055;-76
2024/01/17 08:11:02;;;;;;;26.90;9.85;;;;;;;;;;10437662;28;20053;-77
2024/01/17 08:16:06;;;;;;;23.35;9.57;;;;;;;;;;10423983;28;20045;-77
2024/01/17 08:21:10;;;;;;;18.55;7.38;;;;;;;;;;10438065;28;20079;-77
2024/01/17 08:26:14;;;;;;;16.77;7.63;;;;;;;;;;10431860;28;20077;-77
2024/01/17 08:31:17;;;;;;;15.00;7.07;;;;;;;;;;10441848;28;20055;-76
2024/01/17 08:36:22;;;;;;;12.25;6.28;;;;;;;;;;10442199;28;20045;-77
2024/01/17 08:41:25;;;;;;;13.50;6.90;;;;;;;;;;10442458;28;20131;-76
2024/01/17 08:46:28;;;;;;;13.10;6.30;;;;;;;;;;10443574;28;20052;-77
2024/01/17 08:51:32;;;;;;;16.92;8.02;;;;;;;;;;10424870;28;20048;-77
2024/01/17 08:56:36;;;;;;;20.58;9.60;;;;;;;;;;10444677;28;20051;-77
2024/01/17 09:01:39;;;;;;;20.88;9.60;;;;;;;;;;10444913;28;20053;-77
2024/01/17 09:06:44;;;;;;;16.33;8.27;;;;;;;;;;10444327;28;20056;-77
2024/01/17 09:11:47;;;;;;;15.77;7.07;;;;;;;;;;10443863;28;20558;-77
2024/01/17 09:16:51;;;;;;;9.20;5.90;;;;;;;;;;10442079;28;20053;-77
2024/01/17 09:21:55;;;;;;;9.30;4.35;;;;;;;;;;10443518;28;20056;-77
2024/01/17 09:26:59;;;;;;;9.00;5.05;;;;;;;;;;10449606;28;20049;-77
2024/01/17 09:32:02;;;;;;;6.25;3.50;;;;;;;;;;10438118;28;20049;-77
2024/01/17 09:37:07;;;;;;;5.82;3.40;;;;;;;;;;10452777;28;20095;-77
2024/01/17 09:42:11;;;;;;;5.05;3.15;;;;;;;;;;10448109;28;20390;-78
2024/01/17 09:47:16;;;;;;;7.95;4.53;;;;;;;;;;10450398;28;20056;-78
2024/01/17 09:52:22;;;;;;;7.77;5.20;;;;;;;;;;10447484;28;20461;-78
2024/01/17 09:57:30;;;;;;;9.25;5.95;;;;;;;;;;10451815;28;20116;-78
2024/01/17 10:02:33;;;;;;;11.95;7.50;;;;;;;;;;10434769;28;20059;-78
2024/01/17 10:07:39;;;;;;;11.80;7.82;;;;;;;;;;10450658;28;20124;-78
2024/01/17 10:12:42;;;;;;;23.13;12.40;;;;;;;;;;10448585;28;20616;-78
2024/01/17 10:17:46;;;;;;;21.40;11.73;;;;;;;;;;10435253;28;21220;-78
2024/01/17 10:22:50;;;;;;;24.15;12.68;;;;;;;;;;10451535;28;20045;-78
2024/01/17 10:27:54;;;;;;;19.17;11.40;;;;;;;;;;10447679;28;20049;-78
2024/01/17 10:32:58;;;;;;;16.65;8.45;;;;;;;;;;10430769;28;20059;-78
2024/01/17 10:38:03;;;;;;;13.00;7.45;;;;;;;;;;10447324;28;20154;-78
2024/01/17 10:43:09;;;;;;;11.90;7.10;;;;;;;;;;10429082;28;20048;-79
2024/01/17 10:48:14;;;;;;;;;;;;;;;;;;10446870;28;20299;-79
2024/01/17 10:53:19;;;;;;;8.95;5.88;;;;;;;;;;10451050;28;20404;-80
2024/01/17 10:58:23;;;;;;;17.38;8.85;;;;;;;;;;10450010;28;20132;-81
2024/01/17 11:03:29;;;;;;;12.95;7.75;;;;;;;;;;10432239;28;20053;-82
2024/01/17 11:08:34;;;;;;;13.18;8.27;;;;;;;;;;10440371;28;20037;-84
2024/01/17 13:22:13;;;;;;;9.35;6.30;;;;;;;;;;10416650;28;20053;-89
2024/01/17 13:27:20;;;;;;;10.90;6.93;;;;;;;;;;10427489;28;20049;-89
2024/01/17 13:32:24;;;;;;;9.38;5.63;;;;;;;;;;10445613;28;20055;-89
2024/01/17 13:37:29;;;;;;;13.80;8.80;;;;;;;;;;10453268;28;20053;-88
2024/01/17 13:42:36;;;;;;;9.57;6.95;;;;;;;;;;10454023;28;20048;-89
2024/01/17 13:47:41;;;;;;;9.23;6.20;;;;;;;;;;10464989;28;22233;-88
2024/01/17 13:52:51;;;;;;;11.40;6.68;;;;;;;;;;10441803;28;20606;-88
2024/01/17 13:57:55;;;;;;;8.55;5.53;;;;;;;;;;10453207;28;20128;-88
2024/01/17 14:03:00;;;;;;;8.48;5.50;;;;;;;;;;10463369;28;20068;-88
2024/01/17 14:08:06;;;;;;;8.98;5.35;;;;;;;;;;10443720;28;20068;-88
2024/01/17 14:13:17;;;;;;;15.90;9.23;;;;;;;;;;10449729;28;20041;-88
2024/01/17 14:18:20;;;;;;;11.98;7.75;;;;;;;;;;10460139;28;20114;-88
2024/01/17 14:23:29;;;;;;;8.90;6.55;;;;;;;;;;10445366;28;20048;-87
2024/01/17 14:28:32;;;;;;;12.68;8.25;;;;;;;;;;10456777;28;20045;-88
2024/01/17 14:33:42;;;;;;;9.05;5.55;;;;;;;;;;10457096;28;20501;-93
2024/01/17 14:38:47;;;;;;;8.05;5.25;;;;;;;;;;10460344;28;20500;-90
2024/01/17 14:43:54;;;;;;;9.43;5.65;;;;;;;;;;10474972;28;20052;-91
2024/01/17 14:48:57;;;;;;;7.68;5.03;;;;;;;;;;10464725;28;20523;-92
2024/01/17 14:54:05;;;;;;;7.25;5.45;;;;;;;;;;10464481;28;20057;-91
2024/01/17 14:59:10;;;;;;;7.05;5.45;;;;;;;;;;10475468;28;20612;-91
2024/01/17 15:04:14;;;;;;;6.70;4.70;;;;;;;;;;10469664;28;20059;-92
2024/01/17 15:09:27;;;;;;;6.80;4.50;;;;;;;;;;10446978;28;20052;-90
2024/01/17 15:14:30;;;;;;;5.35;4.28;;;;;;;;;;10462643;28;20295;-91
2024/01/17 15:19:44;;;;;;;4.57;3.95;;;;;;;;;;10468342;28;20041;-91
2024/01/17 15:24:52;;;;;;;6.50;4.68;;;;;;;;;;10477373;28;21153;-90
2024/01/17 15:29:55;;;;;;;8.18;5.45;;;;;;;;;;10486439;28;20055;-93
2024/01/17 15:35:08;;;;;;;11.90;8.57;;;;;;;;;;10454568;28;20099;-88
2024/01/17 15:40:14;;;;;;;10.85;6.82;;;;;;;;;;10463127;28;20048;-91
2024/01/17 15:45:21;;;;;;;10.23;7.65;;;;;;;;;;10470712;28;20540;-94
2024/01/17 15:50:24;;;;;;;14.63;10.68;;;;;;;;;;10466006;28;20052;-89
2024/01/17 15:55:32;;;;;;;9.88;7.15;;;;;;;;;;10442710;28;20053;-90
2024/01/17 16:00:36;;;;;;;11.27;7.20;;;;;;;;;;10450309;28;20064;-90
2024/01/17 16:05:43;;;;;;;9.07;5.47;;;;;;;;;;10460786;28;20053;-89
2024/01/17 16:10:48;;;;;;;9.52;7.15;;;;;;;;;;10455430;28;20067;-91
2024/01/17 16:15:56;;;;;;;6.82;4.78;;;;;;;;;;10440662;28;20053;-89
2024/01/17 16:21:00;;;;;;;6.53;4.47;;;;;;;;;;10433933;28;20058;-89
2024/01/17 16:26:10;;;;;;;8.07;5.75;;;;;;;;;;10449057;28;20378;-90
2024/01/17 16:31:14;;;;;;;8.50;5.57;;;;;;;;;;10464481;28;20079;-90
2024/01/17 16:36:19;;;;;;;6.35;4.65;;;;;;;;;;10477944;28;20048;-89
2024/01/17 16:41:28;;;;;;;8.68;5.38;;;;;;;;;;10487279;28;20066;-89
2024/01/17 16:46:31;;;;;;;6.82;5.18;;;;;;;;;;10488866;28;20037;-89
2024/01/17 16:51:38;;;;;;;6.10;4.40;;;;;;;;;;10471114;28;20147;-92
2024/01/17 16:56:43;;;;;;;5.60;4.50;;;;;;;;;;10442626;28;20064;-90
2024/01/17 17:01:51;;;;;;;4.80;3.58;;;;;;;;;;10465303;28;20741;-90
2024/01/17 17:06:55;;;;;;;7.18;4.55;;;;;;;;;;10467855;28;20622;-89
2024/01/17 17:12:08;;;;;;;8.60;6.05;;;;;;;;;;10483358;28;20110;-90
2024/01/17 17:17:20;;;;;;;6.07;4.28;;;;;;;;;;10483360;28;20041;-89
2024/01/17 17:22:24;;;;;;;4.45;3.53;;;;;;;;;;10458466;28;20040;-90
2024/01/17 17:27:34;;;;;;;3.78;2.70;;;;;;;;;;10491515;28;20032;-90
2024/01/17 17:32:38;;;;;;;5.28;3.38;;;;;;;;;;10465780;28;20053;-90
2024/01/17 17:37:48;;;;;;;4.60;3.40;;;;;;;;;;10471649;28;20048;-89
2024/01/17 17:43:01;;;;;;;7.55;5.82;;;;;;;;;;10471531;28;20115;-90
2024/01/17 17:48:09;;;;;;;6.88;5.10;;;;;;;;;;10468864;28;20048;-91
2024/01/17 17:53:16;;;;;;;4.60;4.03;;;;;;;;;;10468972;28;20040;-91
2024/01/17 17:58:36;;;;;;;6.63;5.00;;;;;;;;;;10469463;28;20051;-90
2024/01/17 18:03:40;;;;;;;8.75;5.90;;;;;;;;;;10466658;28;20041;-91
2024/01/17 18:08:44;;;;;;;8.23;5.90;;;;;;;;;;10466754;28;20119;-90
2024/01/17 18:13:50;;;;;;;11.80;7.57;;;;;;;;;;10464875;28;20045;-92
2024/01/17 18:19:04;;;;;;;10.70;7.70;;;;;;;;;;10456027;28;20128;-88
2024/01/17 18:30:19;;;;;;;8.43;5.70;;;;;;;;;;10336723;28;20046;-87
2024/01/17 19:00:31;;;;;;;9.82;7.30;;;;;;;;;;10408666;23;20065;-80
2024/01/17 19:05:38;;;;;;;8.73;6.45;;;;;;;;;;10408378;28;20099;-80
2024/01/17 19:10:45;;;;;;;11.88;9.05;;;;;;;;;;10415891;28;20065;-80
2024/01/17 19:15:49;;;;;;;11.52;9.30;;;;;;;;;;10400469;28;20047;-80
2024/01/17 19:20:54;;;;;;;10.00;6.97;;;;;;;;;;10408243;28;20056;-80
2024/01/17 19:25:59;;;;;;;10.10;6.25;;;;;;;;;;10387914;28;20502;-80
2024/01/17 19:31:06;;;;;;;8.55;5.43;;;;;;;;;;10404046;28;20449;-80
2024/01/17 19:36:11;;;;;;;5.78;4.32;;;;;;;;;;10381399;28;22016;-79
2024/01/17 19:41:33;;;;;;;6.65;4.35;;;;;;;;;;10406492;28;20041;-79
2024/01/17 19:46:47;;;;;;;5.72;3.38;;;;;;;;;;10380062;28;20116;-79
2024/01/17 19:52:15;;;;;;;4.00;3.17;;;;;;;;;;10395659;28;20047;-80
2024/01/17 20:04:35;;;;;;;;;;;;;;;;;;;;;
2024/01/17 20:11:00;;;;;;;2.88;2.53;;;;;;;;;;10283557;28;20046;-80
2024/01/17 20:16:59;;;;;;;2.00;1.80;;;;;;;;;;10402129;28;20069;-80
2024/01/17 20:22:32;;;;;;;3.20;2.88;;;;;;;;;;10385820;28;20060;-79
2024/01/17 20:27:42;;;;;;;3.15;2.42;;;;;;;;;;10384657;28;20080;-79
2024/01/17 20:32:48;;;;;;;2.45;2.20;;;;;;;;;;10413011;28;20053;-80
2024/01/17 20:38:02;;;;;;;2.53;2.28;;;;;;;;;;10400640;28;20522;-80
2024/01/17 20:43:11;;;;;;;2.87;2.10;;;;;;;;;;10405419;28;20072;-80
2024/01/17 20:48:15;;;;;;;2.80;2.30;;;;;;;;;;10406093;28;20045;-80
2024/01/17 20:53:20;;;;;;;2.63;2.42;;;;;;;;;;10408002;28;20554;-80
2024/01/17 20:58:24;;;;;;;2.60;2.40;;;;;;;;;;10399371;28;20140;-80
2024/01/17 21:03:30;;;;;;;3.38;2.70;;;;;;;;;;10406553;28;20045;-80
2024/01/17 21:08:35;;;;;;;3.10;2.53;;;;;;;;;;10405345;28;20037;-80
2024/01/17 21:13:39;;;;;;;5.00;3.88;;;;;;;;;;10404075;28;20042;-80
2024/01/17 21:18:43;;;;;;;3.50;3.10;;;;;;;;;;10408384;28;20405;-80
2024/01/17 21:23:48;;;;;;;5.63;4.20;;;;;;;;;;10411450;28;20084;-80
2024/01/17 21:28:51;;;;;;;16.83;7.72;;;;;;;;;;10414498;28;20042;-80
2024/01/17 21:33:57;;;;;;;11.70;7.05;;;;;;;;;;10389297;28;20581;-80
2024/01/17 21:39:03;;;;;;;7.63;5.47;;;;;;;;;;10414650;28;20511;-80
2024/01/17 21:44:07;;;;;;;5.55;4.35;;;;;;;;;;10411267;28;20610;-79
2024/01/17 21:49:11;;;;;;;5.65;4.70;;;;;;;;;;10411702;28;20053;-79
2024/01/17 21:54:16;;;;;;;5.80;4.25;;;;;;;;;;10411258;28;20041;-79
2024/01/17 21:59:20;;;;;;;4.20;3.35;;;;;;;;;;10405030;28;20082;-79
2024/01/17 22:04:23;;;;;;;3.38;2.90;;;;;;;;;;10407579;28;20045;-80
2024/01/17 22:09:30;;;;;;;6.18;4.57;;;;;;;;;;10396466;28;20521;-80
2024/01/17 22:14:34;;;;;;;8.35;5.60;;;;;;;;;;10397341;28;20045;-79
2024/01/17 22:19:37;;;;;;;6.63;4.95;;;;;;;;;;10412268;28;20063;-79
2024/01/17 22:24:42;;;;;;;5.03;4.00;;;;;;;;;;10413247;28;20069;-79
2024/01/17 22:29:46;;;;;;;4.10;3.05;;;;;;;;;;10419432;28;20315;-79
2024/01/17 22:34:49;;;;;;;4.82;3.85;;;;;;;;;;10419635;28;20045;-79
2024/01/17 22:39:54;;;;;;;5.75;4.38;;;;;;;;;;10419512;28;20060;-79
2024/01/17 22:44:57;;;;;;;4.68;3.88;;;;;;;;;;10409787;28;20045;-79
2024/01/17 22:50:01;;;;;;;8.18;6.40;;;;;;;;;;10413456;28;20459;-78
2024/01/17 22:55:07;;;;;;;8.30;6.18;;;;;;;;;;10416138;28;20088;-78
2024/01/17 23:00:19;;;;;;;8.57;6.00;;;;;;;;;;10403293;28;23188;-78
2024/01/17 23:05:23;;;;;;;5.75;4.45;;;;;;;;;;10410819;28;20042;-78
2024/01/17 23:10:28;;;;;;;9.40;7.05;;;;;;;;;;10496123;22;20108;-78
2024/01/17 23:15:31;;;;;;;8.30;6.38;;;;;;;;;;10522934;28;20048;-78
2024/01/17 23:20:34;;;;;;;5.97;4.97;;;;;;;;;;10487255;28;20044;-78
2024/01/17 23:25:40;;;;;;;8.95;6.03;;;;;;;;;;10483789;28;20102;-78
2024/01/17 23:30:43;;;;;;;10.10;7.03;;;;;;;;;;10490136;28;20129;-78
2024/01/17 23:35:46;;;;;;;9.10;6.20;;;;;;;;;;10488417;28;20056;-77
2024/01/17 23:40:51;;;;;;;7.65;5.32;;;;;;;;;;10489708;28;20114;-77
2024/01/17 23:45:54;;;;;;;8.40;6.10;;;;;;;;;;10489874;28;20056;-78
2024/01/17 23:50:58;;;;;;;9.82;6.53;;;;;;;;;;10485544;28;20095;-78
2024/01/17 23:56:03;;;;;;;10.10;6.90;;;;;;;;;;10490723;28;20105;-77
